Date,TemperatureHighF,TemperatureAvgF,TemperatureLowF,DewpointHighF,DewpointAvgF,DewpointLowF,HumidityHigh,HumidityAvg,HumidityLow,PressureMaxIn,PressureMinIn,WindSpeedMaxMPH,WindSpeedAvgMPH,GustSpeedMaxMPH,PrecipitationSumIn
2013-1-1,60.3,50.6,48.6,46.8,40.6,37.7,74,69,61,30.23,30.11,3,1,8,0.00
2013-1-3,59.7,53.8,49.3,43.0,40.5,37.6,72,61,44,30.63,30.49,9,5,19,0.00
2013-1-4,59.0,52.5,47.1,45.7,40.9,34.6,77,65,50,30.66,30.56,6,2,12,0.00
2013-1-5,61.9,55.2,47.7,49.9,40.4,29.0,76,59,35,30.60,30.43,3,1,5,0.00
2013-1-6,68.5,59.9,53.8,43.9,34.3,26.5,47,38,30,30.42,30.35,4,1,5,0.00
2013-1-7,68.2,59.8,53.8,44.9,36.6,29.3,51,42,32,30.41,30.32,3,1,4,0.00
2013-1-8,67.3,59.0,52.9,42.2,35.5,27.9,54,42,31,30.42,30.34,5,1,7,0.00
2013-1-9,62.2,55.8,50.0,42.5,38.5,33.6,56,52,46,30.38,30.28,12,4,23,0.00
2013-1-10,64.8,59.2,55.0,48.5,43.7,40.4,60,57,51,30.33,30.25,8,3,10,0.00
2013-1-11,65.3,57.0,52.0,48.5,41.7,33.4,63,56,48,30.26,30.21,7,2,8,0.00
2013-1-12,61.7,54.5,48.4,40.6,36.8,31.6,65,52,42,30.24,30.17,9,2,14,0.00
2013-1-13,55.9,49.3,43.3,39.8,34.3,29.0,78,57,43,30.17,30.02,5,2,12,0.06
2013-1-14,54.9,47.2,41.0,31.6,28.9,25.1,63,49,39,30.24,30.03,14,5,19,0.00
2013-1-15,56.5,47.3,43.0,31.0,27.4,21.1,59,46,36,30.19,30.11,19,6,24,0.00
2013-1-16,48.6,45.8,44.4,41.2,33.5,27.3,86,63,50,30.18,30.07,7,3,10,0.16
2013-1-17,58.1,51.6,45.5,43.8,40.6,37.2,89,67,51,30.13,30.01,8,3,12,0.06
2013-1-18,59.0,53.9,50.7,49.2,46.3,43.8,81,76,70,30.06,29.87,7,2,10,0.00
2013-1-19,51.4,46.2,41.2,46.6,41.6,34.2,91,84,76,29.84,29.45,13,6,21,1.07
2013-1-20,51.3,45.1,38.7,40.7,35.0,29.7,81,68,54,29.96,29.62,8,4,12,0.03
2013-1-21,53.6,47.5,43.0,42.2,35.2,29.2,87,63,50,30.10,29.84,9,4,21,0.19
2013-1-22,49.3,43.0,39.4,39.7,33.4,29.1,82,69,58,30.08,29.95,5,2,9,0.10
2013-1-23,49.8,43.2,36.1,36.0,32.0,28.5,83,65,46,30.20,29.94,6,4,11,0.19
2013-1-24,55.9,49.2,44.2,42.4,39.3,35.6,86,69,57,30.12,29.96,12,5,17,0.06
2013-1-25,54.1,48.3,43.9,45.0,39.2,33.5,79,71,63,30.06,29.98,5,2,8,0.00
2013-1-26,63.1,55.5,49.8,45.7,39.8,26.1,75,57,31,30.19,30.04,16,4,20,0.00
2013-1-27,64.2,56.7,51.4,45.4,33.6,22.8,76,43,29,30.19,30.12,4,2,8,0.00
2013-1-28,61.0,53.1,46.9,45.7,32.7,21.4,79,47,25,30.42,30.18,6,3,12,0.00
2013-1-29,66.0,57.3,48.6,37.6,30.1,17.7,50,36,24,30.40,30.34,4,1,6,0.00
2013-1-30,69.6,61.5,53.4,37.5,28.4,20.2,32,28,26,30.45,30.38,5,2,6,0.00
2013-1-31,70.0,61.8,56.1,39.1,31.4,21.3,46,32,24,30.52,30.43,5,2,7,0.00